Muzaffarpur, India

2:48 PM IST on February 12, 2016 (GMT +0530)
Patna | | Change Station
CLOSE
Current Station
Airport
Location: Patna,
Elevation: 197 ft
Nearby Weather Stations

Elev 197 ft 25.59 °N, 85.09 °E | Updated 18 minutes ago

Haze
Haze
82 °F
Feels Like 82 °F
N
10
Wind Variable Wind from West

Today
High -- | Low -- °F
--% Chance of Precip.
Yesterday
High -- | Low -- °F
Precip. -- in
Pressure 29.83 in
Visibility 1.9 miles
Clouds
Dew Point 52 °F
Humidity 35%
Rainfall 0.00 in
Snow Depth Not available.
6:26 AM 5:38 PM
Waxing Crescent, 19% visible
METAR VEPT 120900Z 27009KT 3000 HZ NSC 28/11 Q1010 NOSIG
Pressure 29.83 in
Visibility 1.9 miles
Clouds
Dew Point 52 °F
Humidity 35%
Rainfall 0.00 in
Snow Depth Not available.
6:26 AM 5:38 PM
Waxing Crescent, 19% visible
METAR VEPT 120900Z 27009KT 3000 HZ NSC 28/11 Q1010 NOSIG

10-Day Weather Forecast

No radar image for this location.
×

Almanac

Astronomy

Feb. 12, 2016 Rise Set
Actual Time
Civil Twilight
Nautical Twilight
Astronomical Twilight
Moon
Length of Visible Light
Length of Day
Tomorrow will be .
, % of the Moon is Illuminated

Today's Extremes

Country Highs Country Lows

Community

WunderPhotos

Upload Photos

1,892,286 photos uploaded!

WunderBlog® & News

Nearby

Air Quality

  Air Quality AQ Index Pollutant
Not available.

Snow Depth

Station Depth Elevation

Earthquake Activity

City Distance Mag. Time & Date
Minimum magnitude displayed is 2.5.

Coastal Water Temperatures

Place Temperature

Stations

Nearby Weather Stations

Station Location Temp. Windchill Dew Point Humidity Wind Precip. Elev Updated Type